sensor_id;sensor_type;location;lat;lon;timestamp;pressure;altitude;pressure_sealevel;temperature
71463;BMP180;59266;52.608;13.260;2023-07-31T00:01:10;100715.00;;;15.20
71463;BMP180;59266;52.608;13.260;2023-07-31T00:03:36;100710.00;;;15.30
71463;BMP180;59266;52.608;13.260;2023-07-31T00:06:03;100707.00;;;15.20
71463;BMP180;59266;52.608;13.260;2023-07-31T00:08:29;100709.00;;;15.30
71463;BMP180;59266;52.608;13.260;2023-07-31T00:10:56;100707.00;;;15.30
71463;BMP180;59266;52.608;13.260;2023-07-31T00:13:22;100711.00;;;15.30
71463;BMP180;59266;52.608;13.260;2023-07-31T00:15:49;100706.00;;;15.30
71463;BMP180;59266;52.608;13.260;2023-07-31T00:18:16;100709.00;;;15.30
71463;BMP180;59266;52.608;13.260;2023-07-31T00:20:42;100697.00;;;15.20
71463;BMP180;59266;52.608;13.260;2023-07-31T00:23:09;100703.00;;;15.20
71463;BMP180;59266;52.608;13.260;2023-07-31T00:25:35;100688.00;;;15.20
71463;BMP180;59266;52.608;13.260;2023-07-31T00:28:02;100691.00;;;15.20
71463;BMP180;59266;52.608;13.260;2023-07-31T00:30:29;100692.00;;;15.20
71463;BMP180;59266;52.608;13.260;2023-07-31T00:32:56;100693.00;;;15.30
71463;BMP180;59266;52.608;13.260;2023-07-31T00:35:22;100699.00;;;15.30
71463;BMP180;59266;52.608;13.260;2023-07-31T00:37:49;100694.00;;;15.30
71463;BMP180;59266;52.608;13.260;2023-07-31T00:40:16;100684.00;;;15.30
71463;BMP180;59266;52.608;13.260;2023-07-31T00:42:42;100674.00;;;15.30
71463;BMP180;59266;52.608;13.260;2023-07-31T00:45:09;100689.00;;;15.40
71463;BMP180;59266;52.608;13.260;2023-07-31T00:47:35;100681.00;;;15.40
71463;BMP180;59266;52.608;13.260;2023-07-31T00:50:02;100671.00;;;15.30
71463;BMP180;59266;52.608;13.260;2023-07-31T00:52:29;100667.00;;;15.30
71463;BMP180;59266;52.608;13.260;2023-07-31T00:54:55;100673.00;;;15.40
71463;BMP180;59266;52.608;13.260;2023-07-31T00:57:22;100675.00;;;15.40
71463;BMP180;59266;52.608;13.260;2023-07-31T00:59:48;100672.00;;;15.30
71463;BMP180;59266;52.608;13.260;2023-07-31T01:02:15;100666.00;;;15.20
71463;BMP180;59266;52.608;13.260;2023-07-31T01:04:43;100676.00;;;15.40
71463;BMP180;59266;52.608;13.260;2023-07-31T01:07:26;100664.00;;;15.40
71463;BMP180;59266;52.608;13.260;2023-07-31T01:12:27;100670.00;;;15.60
71463;BMP180;59266;52.608;13.260;2023-07-31T01:15:08;100661.00;;;15.60
71463;BMP180;59266;52.608;13.260;2023-07-31T01:17:38;100656.00;;;15.70
71463;BMP180;59266;52.608;13.260;2023-07-31T01:20:12;100665.00;;;15.70
71463;BMP180;59266;52.608;13.260;2023-07-31T01:26:21;100667.00;;;15.70
71463;BMP180;59266;52.608;13.260;2023-07-31T01:28:28;100674.00;;;15.70
71463;BMP180;59266;52.608;13.260;2023-07-31T01:30:58;100688.00;;;15.60
71463;BMP180;59266;52.608;13.260;2023-07-31T01:33:27;100675.00;;;15.60
71463;BMP180;59266;52.608;13.260;2023-07-31T01:35:54;100674.00;;;15.70
71463;BMP180;59266;52.608;13.260;2023-07-31T01:38:21;100670.00;;;15.60
71463;BMP180;59266;52.608;13.260;2023-07-31T01:40:52;100670.00;;;15.60
71463;BMP180;59266;52.608;13.260;2023-07-31T01:43:19;100664.00;;;15.80
71463;BMP180;59266;52.608;13.260;2023-07-31T01:45:46;100662.00;;;15.60
71463;BMP180;59266;52.608;13.260;2023-07-31T01:48:12;100661.00;;;15.60
71463;BMP180;59266;52.608;13.260;2023-07-31T01:50:39;100658.00;;;15.70
71463;BMP180;59266;52.608;13.260;2023-07-31T01:53:06;100655.00;;;15.70
71463;BMP180;59266;52.608;13.260;2023-07-31T01:55:32;100655.00;;;15.80
71463;BMP180;59266;52.608;13.260;2023-07-31T01:57:59;100653.00;;;15.90
71463;BMP180;59266;52.608;13.260;2023-07-31T02:00:25;100655.00;;;15.90
71463;BMP180;59266;52.608;13.260;2023-07-31T02:02:52;100647.00;;;16.00
71463;BMP180;59266;52.608;13.260;2023-07-31T02:05:19;100648.00;;;16.00
71463;BMP180;59266;52.608;13.260;2023-07-31T02:07:46;100640.00;;;16.10
71463;BMP180;59266;52.608;13.260;2023-07-31T02:10:12;100646.00;;;15.90
71463;BMP180;59266;52.608;13.260;2023-07-31T02:12:39;100643.00;;;15.90
71463;BMP180;59266;52.608;13.260;2023-07-31T02:15:05;100630.00;;;15.70
71463;BMP180;59266;52.608;13.260;2023-07-31T02:17:32;100637.00;;;15.70
71463;BMP180;59266;52.608;13.260;2023-07-31T02:19:59;100629.00;;;15.90
71463;BMP180;59266;52.608;13.260;2023-07-31T02:22:26;100625.00;;;15.80
71463;BMP180;59266;52.608;13.260;2023-07-31T02:24:52;100619.00;;;15.80
71463;BMP180;59266;52.608;13.260;2023-07-31T02:27:19;100619.00;;;15.90
71463;BMP180;59266;52.608;13.260;2023-07-31T02:29:45;100619.00;;;16.00
71463;BMP180;59266;52.608;13.260;2023-07-31T02:32:12;100618.00;;;16.00
71463;BMP180;59266;52.608;13.260;2023-07-31T02:34:39;100614.00;;;16.00
71463;BMP180;59266;52.608;13.260;2023-07-31T02:37:06;100612.00;;;16.00
71463;BMP180;59266;52.608;13.260;2023-07-31T02:39:33;100623.00;;;15.90
71463;BMP180;59266;52.608;13.260;2023-07-31T02:42:00;100619.00;;;16.00
71463;BMP180;59266;52.608;13.260;2023-07-31T02:44:26;100614.00;;;16.10
71463;BMP180;59266;52.608;13.260;2023-07-31T02:46:53;100610.00;;;16.00
71463;BMP180;59266;52.608;13.260;2023-07-31T02:49:20;100608.00;;;16.10
71463;BMP180;59266;52.608;13.260;2023-07-31T02:51:46;100610.00;;;16.20
71463;BMP180;59266;52.608;13.260;2023-07-31T02:54:13;100602.00;;;16.20
71463;BMP180;59266;52.608;13.260;2023-07-31T02:56:39;100607.00;;;16.20
71463;BMP180;59266;52.608;13.260;2023-07-31T02:59:06;100610.00;;;16.10
71463;BMP180;59266;52.608;13.260;2023-07-31T03:01:33;100597.00;;;16.10
71463;BMP180;59266;52.608;13.260;2023-07-31T03:04:00;100602.00;;;16.00
71463;BMP180;59266;52.608;13.260;2023-07-31T03:06:26;100597.00;;;16.00
71463;BMP180;59266;52.608;13.260;2023-07-31T03:08:54;100596.00;;;16.10
71463;BMP180;59266;52.608;13.260;2023-07-31T03:11:20;100605.00;;;16.00
71463;BMP180;59266;52.608;13.260;2023-07-31T03:13:47;100606.00;;;16.10
71463;BMP180;59266;52.608;13.260;2023-07-31T03:16:14;100591.00;;;16.10
71463;BMP180;59266;52.608;13.260;2023-07-31T03:18:40;100594.00;;;16.10
71463;BMP180;59266;52.608;13.260;2023-07-31T03:21:07;100594.00;;;16.00
71463;BMP180;59266;52.608;13.260;2023-07-31T03:23:34;100581.00;;;16.10
71463;BMP180;59266;52.608;13.260;2023-07-31T03:26:02;100574.00;;;16.10
71463;BMP180;59266;52.608;13.260;2023-07-31T03:28:30;100575.00;;;16.10
71463;BMP180;59266;52.608;13.260;2023-07-31T03:30:56;100572.00;;;15.90
71463;BMP180;59266;52.608;13.260;2023-07-31T03:33:23;100571.00;;;16.00
71463;BMP180;59266;52.608;13.260;2023-07-31T03:35:50;100572.00;;;15.90
71463;BMP180;59266;52.608;13.260;2023-07-31T03:38:17;100567.00;;;16.00
71463;BMP180;59266;52.608;13.260;2023-07-31T03:40:43;100563.00;;;16.10
71463;BMP180;59266;52.608;13.260;2023-07-31T03:43:11;100566.00;;;16.00
71463;BMP180;59266;52.608;13.260;2023-07-31T03:45:37;100560.00;;;16.00
71463;BMP180;59266;52.608;13.260;2023-07-31T03:48:04;100551.00;;;16.00
71463;BMP180;59266;52.608;13.260;2023-07-31T03:50:31;100554.00;;;16.00
71463;BMP180;59266;52.608;13.260;2023-07-31T03:52:57;100549.00;;;15.80
71463;BMP180;59266;52.608;13.260;2023-07-31T03:55:24;100556.00;;;15.90
71463;BMP180;59266;52.608;13.260;2023-07-31T03:57:51;100552.00;;;15.90
71463;BMP180;59266;52.608;13.260;2023-07-31T04:00:18;100554.00;;;15.90
71463;BMP180;59266;52.608;13.260;2023-07-31T04:02:44;100555.00;;;15.90
71463;BMP180;59266;52.608;13.260;2023-07-31T04:05:11;100548.00;;;16.10
71463;BMP180;59266;52.608;13.260;2023-07-31T04:07:38;100537.00;;;16.00
71463;BMP180;59266;52.608;13.260;2023-07-31T04:10:04;100540.00;;;16.20
71463;BMP180;59266;52.608;13.260;2023-07-31T04:12:31;100532.00;;;16.10
71463;BMP180;59266;52.608;13.260;2023-07-31T04:14:58;100538.00;;;16.20
71463;BMP180;59266;52.608;13.260;2023-07-31T04:17:24;100530.00;;;16.00
71463;BMP180;59266;52.608;13.260;2023-07-31T04:19:51;100531.00;;;16.00
71463;BMP180;59266;52.608;13.260;2023-07-31T04:22:18;100530.00;;;15.90
71463;BMP180;59266;52.608;13.260;2023-07-31T04:24:44;100529.00;;;16.10
71463;BMP180;59266;52.608;13.260;2023-07-31T04:27:11;100529.00;;;16.20
71463;BMP180;59266;52.608;13.260;2023-07-31T04:29:40;100530.00;;;16.10
71463;BMP180;59266;52.608;13.260;2023-07-31T04:32:09;100531.00;;;16.10
71463;BMP180;59266;52.608;13.260;2023-07-31T04:34:36;100529.00;;;16.20
71463;BMP180;59266;52.608;13.260;2023-07-31T04:37:02;100524.00;;;16.30
71463;BMP180;59266;52.608;13.260;2023-07-31T04:39:29;100527.00;;;16.30
71463;BMP180;59266;52.608;13.260;2023-07-31T04:41:55;100519.00;;;16.40
71463;BMP180;59266;52.608;13.260;2023-07-31T04:44:25;100522.00;;;16.30
71463;BMP180;59266;52.608;13.260;2023-07-31T04:46:51;100524.00;;;16.30
71463;BMP180;59266;52.608;13.260;2023-07-31T04:49:19;100521.00;;;16.40
71463;BMP180;59266;52.608;13.260;2023-07-31T04:51:45;100524.00;;;16.40
71463;BMP180;59266;52.608;13.260;2023-07-31T04:54:12;100531.00;;;16.50
71463;BMP180;59266;52.608;13.260;2023-07-31T04:56:41;100523.00;;;16.50
71463;BMP180;59266;52.608;13.260;2023-07-31T04:59:08;100525.00;;;16.50
71463;BMP180;59266;52.608;13.260;2023-07-31T05:01:34;100534.00;;;16.70
71463;BMP180;59266;52.608;13.260;2023-07-31T05:04:01;100527.00;;;16.70
71463;BMP180;59266;52.608;13.260;2023-07-31T05:06:28;100523.00;;;16.80
71463;BMP180;59266;52.608;13.260;2023-07-31T05:08:55;100523.00;;;16.90
71463;BMP180;59266;52.608;13.260;2023-07-31T05:11:22;100521.00;;;16.80
71463;BMP180;59266;52.608;13.260;2023-07-31T05:13:49;100522.00;;;16.80
71463;BMP180;59266;52.608;13.260;2023-07-31T05:16:16;100523.00;;;17.00
71463;BMP180;59266;52.608;13.260;2023-07-31T05:18:47;100522.00;;;17.00
71463;BMP180;59266;52.608;13.260;2023-07-31T05:21:13;100518.00;;;17.00
71463;BMP180;59266;52.608;13.260;2023-07-31T05:23:40;100521.00;;;17.10
71463;BMP180;59266;52.608;13.260;2023-07-31T05:26:08;100513.00;;;17.00
71463;BMP180;59266;52.608;13.260;2023-07-31T05:28:37;100512.00;;;17.10
71463;BMP180;59266;52.608;13.260;2023-07-31T05:31:04;100507.00;;;17.30
71463;BMP180;59266;52.608;13.260;2023-07-31T05:33:33;100503.00;;;17.40
71463;BMP180;59266;52.608;13.260;2023-07-31T05:36:00;100505.00;;;17.40
71463;BMP180;59266;52.608;13.260;2023-07-31T05:38:26;100505.00;;;17.40
71463;BMP180;59266;52.608;13.260;2023-07-31T05:40:53;100500.00;;;17.40
71463;BMP180;59266;52.608;13.260;2023-07-31T05:43:20;100502.00;;;17.40
71463;BMP180;59266;52.608;13.260;2023-07-31T05:45:47;100493.00;;;17.40
71463;BMP180;59266;52.608;13.260;2023-07-31T05:48:14;100496.00;;;17.50
71463;BMP180;59266;52.608;13.260;2023-07-31T05:50:43;100494.00;;;17.40
71463;BMP180;59266;52.608;13.260;2023-07-31T05:53:10;100493.00;;;17.30
71463;BMP180;59266;52.608;13.260;2023-07-31T05:55:37;100498.00;;;17.20
71463;BMP180;59266;52.608;13.260;2023-07-31T05:58:03;100493.00;;;17.20
71463;BMP180;59266;52.608;13.260;2023-07-31T06:00:30;100495.00;;;17.10
71463;BMP180;59266;52.608;13.260;2023-07-31T06:02:57;100490.00;;;17.20
71463;BMP180;59266;52.608;13.260;2023-07-31T06:05:24;100492.00;;;17.30
71463;BMP180;59266;52.608;13.260;2023-07-31T06:07:51;100501.00;;;17.50
71463;BMP180;59266;52.608;13.260;2023-07-31T06:10:17;100495.00;;;17.60
71463;BMP180;59266;52.608;13.260;2023-07-31T06:12:45;100489.00;;;17.70
71463;BMP180;59266;52.608;13.260;2023-07-31T06:15:11;100492.00;;;17.60
71463;BMP180;59266;52.608;13.260;2023-07-31T06:17:38;100495.00;;;17.70
71463;BMP180;59266;52.608;13.260;2023-07-31T06:20:08;100486.00;;;17.70
71463;BMP180;59266;52.608;13.260;2023-07-31T06:22:41;100493.00;;;17.60
71463;BMP180;59266;52.608;13.260;2023-07-31T06:25:08;100491.00;;;17.50
71463;BMP180;59266;52.608;13.260;2023-07-31T06:27:38;100490.00;;;17.30
71463;BMP180;59266;52.608;13.260;2023-07-31T06:30:05;100489.00;;;17.50
71463;BMP180;59266;52.608;13.260;2023-07-31T06:32:32;100488.00;;;17.60
71463;BMP180;59266;52.608;13.260;2023-07-31T06:35:01;100489.00;;;17.60
71463;BMP180;59266;52.608;13.260;2023-07-31T06:37:27;100489.00;;;17.70
71463;BMP180;59266;52.608;13.260;2023-07-31T06:40:02;100490.00;;;17.80
71463;BMP180;59266;52.608;13.260;2023-07-31T06:42:31;100487.00;;;18.00
71463;BMP180;59266;52.608;13.260;2023-07-31T06:44:59;100491.00;;;18.20
71463;BMP180;59266;52.608;13.260;2023-07-31T06:47:26;100483.00;;;18.20
71463;BMP180;59266;52.608;13.260;2023-07-31T06:49:53;100481.00;;;18.10
71463;BMP180;59266;52.608;13.260;2023-07-31T06:52:20;100486.00;;;18.00
71463;BMP180;59266;52.608;13.260;2023-07-31T06:55:01;100488.00;;;17.90
71463;BMP180;59266;52.608;13.260;2023-07-31T06:57:29;100478.00;;;18.00
71463;BMP180;59266;52.608;13.260;2023-07-31T06:59:55;100479.00;;;17.70
71463;BMP180;59266;52.608;13.260;2023-07-31T07:02:22;100482.00;;;18.00
71463;BMP180;59266;52.608;13.260;2023-07-31T07:04:49;100487.00;;;18.20
71463;BMP180;59266;52.608;13.260;2023-07-31T07:07:17;100483.00;;;18.30
71463;BMP180;59266;52.608;13.260;2023-07-31T07:09:43;100485.00;;;18.40
71463;BMP180;59266;52.608;13.260;2023-07-31T07:12:10;100481.00;;;18.20
71463;BMP180;59266;52.608;13.260;2023-07-31T07:14:36;100488.00;;;18.10
71463;BMP180;59266;52.608;13.260;2023-07-31T07:17:03;100488.00;;;18.30
71463;BMP180;59266;52.608;13.260;2023-07-31T07:19:30;100479.00;;;18.20
71463;BMP180;59266;52.608;13.260;2023-07-31T07:21:57;100485.00;;;18.30
71463;BMP180;59266;52.608;13.260;2023-07-31T07:24:23;100482.00;;;18.30
71463;BMP180;59266;52.608;13.260;2023-07-31T07:26:50;100478.00;;;18.20
71463;BMP180;59266;52.608;13.260;2023-07-31T07:29:17;100482.00;;;18.30
71463;BMP180;59266;52.608;13.260;2023-07-31T07:31:45;100481.00;;;18.70
71463;BMP180;59266;52.608;13.260;2023-07-31T07:34:12;100476.00;;;18.70
71463;BMP180;59266;52.608;13.260;2023-07-31T07:36:38;100485.00;;;18.70
71463;BMP180;59266;52.608;13.260;2023-07-31T07:39:06;100483.00;;;18.50
71463;BMP180;59266;52.608;13.260;2023-07-31T07:41:32;100479.00;;;18.40
71463;BMP180;59266;52.608;13.260;2023-07-31T07:43:59;100474.00;;;18.30
71463;BMP180;59266;52.608;13.260;2023-07-31T07:46:28;100477.00;;;18.20
71463;BMP180;59266;52.608;13.260;2023-07-31T07:48:55;100471.00;;;18.50
71463;BMP180;59266;52.608;13.260;2023-07-31T07:51:22;100472.00;;;18.80
71463;BMP180;59266;52.608;13.260;2023-07-31T07:53:48;100475.00;;;18.80
71463;BMP180;59266;52.608;13.260;2023-07-31T07:56:15;100483.00;;;18.40
71463;BMP180;59266;52.608;13.260;2023-07-31T07:58:41;100471.00;;;18.20
71463;BMP180;59266;52.608;13.260;2023-07-31T08:01:08;100466.00;;;18.30
71463;BMP180;59266;52.608;13.260;2023-07-31T08:03:34;100454.00;;;18.60
71463;BMP180;59266;52.608;13.260;2023-07-31T08:06:02;100457.00;;;19.10
71463;BMP180;59266;52.608;13.260;2023-07-31T08:08:29;100457.00;;;19.10
71463;BMP180;59266;52.608;13.260;2023-07-31T08:10:56;100458.00;;;18.60
71463;BMP180;59266;52.608;13.260;2023-07-31T08:13:22;100467.00;;;18.50
71463;BMP180;59266;52.608;13.260;2023-07-31T08:15:49;100460.00;;;18.10
71463;BMP180;59266;52.608;13.260;2023-07-31T08:18:16;100470.00;;;18.10
71463;BMP180;59266;52.608;13.260;2023-07-31T08:20:44;100468.00;;;18.20
71463;BMP180;59266;52.608;13.260;2023-07-31T08:23:10;100456.00;;;18.00
71463;BMP180;59266;52.608;13.260;2023-07-31T08:25:37;100458.00;;;18.20
71463;BMP180;59266;52.608;13.260;2023-07-31T08:28:05;100454.00;;;18.50
71463;BMP180;59266;52.608;13.260;2023-07-31T08:30:32;100450.00;;;18.50
71463;BMP180;59266;52.608;13.260;2023-07-31T08:33:00;100454.00;;;18.20
71463;BMP180;59266;52.608;13.260;2023-07-31T08:35:27;100445.00;;;18.20
71463;BMP180;59266;52.608;13.260;2023-07-31T08:37:56;100453.00;;;18.40
71463;BMP180;59266;52.608;13.260;2023-07-31T08:40:23;100448.00;;;18.10
71463;BMP180;59266;52.608;13.260;2023-07-31T08:42:53;100456.00;;;18.20
71463;BMP180;59266;52.608;13.260;2023-07-31T08:45:20;100453.00;;;18.40
71463;BMP180;59266;52.608;13.260;2023-07-31T08:47:50;100456.00;;;18.30
71463;BMP180;59266;52.608;13.260;2023-07-31T08:50:19;100446.00;;;18.60
71463;BMP180;59266;52.608;13.260;2023-07-31T08:52:47;100441.00;;;18.70
71463;BMP180;59266;52.608;13.260;2023-07-31T08:55:14;100443.00;;;19.20
71463;BMP180;59266;52.608;13.260;2023-07-31T08:57:41;100438.00;;;19.70
71463;BMP180;59266;52.608;13.260;2023-07-31T09:00:10;100435.00;;;19.70
71463;BMP180;59266;52.608;13.260;2023-07-31T09:02:43;100437.00;;;19.70
71463;BMP180;59266;52.608;13.260;2023-07-31T09:05:12;100438.00;;;19.80
71463;BMP180;59266;52.608;13.260;2023-07-31T09:07:39;100440.00;;;19.70
71463;BMP180;59266;52.608;13.260;2023-07-31T09:10:07;100431.00;;;19.90
71463;BMP180;59266;52.608;13.260;2023-07-31T09:12:34;100436.00;;;20.20
71463;BMP180;59266;52.608;13.260;2023-07-31T09:15:00;100441.00;;;20.10
71463;BMP180;59266;52.608;13.260;2023-07-31T09:17:36;100435.00;;;19.60
71463;BMP180;59266;52.608;13.260;2023-07-31T09:20:14;100437.00;;;19.60
71463;BMP180;59266;52.608;13.260;2023-07-31T09:22:44;100439.00;;;19.10
71463;BMP180;59266;52.608;13.260;2023-07-31T09:25:25;100442.00;;;18.70
71463;BMP180;59266;52.608;13.260;2023-07-31T09:28:03;100441.00;;;18.50
71463;BMP180;59266;52.608;13.260;2023-07-31T09:30:30;100437.00;;;18.40
71463;BMP180;59266;52.608;13.260;2023-07-31T09:33:02;100442.00;;;18.40
71463;BMP180;59266;52.608;13.260;2023-07-31T09:35:34;100441.00;;;18.40
71463;BMP180;59266;52.608;13.260;2023-07-31T09:38:06;100439.00;;;18.50
71463;BMP180;59266;52.608;13.260;2023-07-31T09:40:38;100442.00;;;18.40
71463;BMP180;59266;52.608;13.260;2023-07-31T09:43:07;100433.00;;;18.80
71463;BMP180;59266;52.608;13.260;2023-07-31T09:45:35;100432.00;;;18.90
71463;BMP180;59266;52.608;13.260;2023-07-31T09:48:09;100437.00;;;19.00
71463;BMP180;59266;52.608;13.260;2023-07-31T09:50:37;100428.00;;;19.10
71463;BMP180;59266;52.608;13.260;2023-07-31T09:53:06;100423.00;;;19.40
71463;BMP180;59266;52.608;13.260;2023-07-31T09:55:33;100422.00;;;19.40
71463;BMP180;59266;52.608;13.260;2023-07-31T09:58:18;100419.00;;;19.60
71463;BMP180;59266;52.608;13.260;2023-07-31T10:01:05;100410.00;;;20.00
71463;BMP180;59266;52.608;13.260;2023-07-31T10:03:36;100418.00;;;20.50
71463;BMP180;59266;52.608;13.260;2023-07-31T10:06:05;100420.00;;;20.40
71463;BMP180;59266;52.608;13.260;2023-07-31T10:08:35;100423.00;;;20.50
71463;BMP180;59266;52.608;13.260;2023-07-31T10:11:03;100420.00;;;20.20
71463;BMP180;59266;52.608;13.260;2023-07-31T10:13:30;100418.00;;;19.80
71463;BMP180;59266;52.608;13.260;2023-07-31T10:15:59;100426.00;;;19.50
71463;BMP180;59266;52.608;13.260;2023-07-31T10:18:29;100421.00;;;19.10
71463;BMP180;59266;52.608;13.260;2023-07-31T10:20:56;100419.00;;;19.30
71463;BMP180;59266;52.608;13.260;2023-07-31T10:23:24;100407.00;;;19.40
71463;BMP180;59266;52.608;13.260;2023-07-31T10:25:55;100412.00;;;19.60
71463;BMP180;59266;52.608;13.260;2023-07-31T10:28:24;100402.00;;;19.30
71463;BMP180;59266;52.608;13.260;2023-07-31T10:30:51;100406.00;;;19.40
71463;BMP180;59266;52.608;13.260;2023-07-31T10:33:18;100396.00;;;19.40
71463;BMP180;59266;52.608;13.260;2023-07-31T10:35:47;100398.00;;;19.50
71463;BMP180;59266;52.608;13.260;2023-07-31T10:38:15;100397.00;;;19.70
71463;BMP180;59266;52.608;13.260;2023-07-31T10:40:42;100396.00;;;19.30
71463;BMP180;59266;52.608;13.260;2023-07-31T10:43:08;100391.00;;;19.30
71463;BMP180;59266;52.608;13.260;2023-07-31T10:45:39;100392.00;;;19.50
71463;BMP180;59266;52.608;13.260;2023-07-31T10:48:12;100378.00;;;19.80
71463;BMP180;59266;52.608;13.260;2023-07-31T10:50:49;100367.00;;;21.50
71463;BMP180;59266;52.608;13.260;2023-07-31T10:53:29;100365.00;;;22.10
71463;BMP180;59266;52.608;13.260;2023-07-31T10:56:00;100323.00;;;23.40
71463;BMP180;59266;52.608;13.260;2023-07-31T10:58:27;100316.00;;;23.40
71463;BMP180;59266;52.608;13.260;2023-07-31T11:01:02;100341.00;;;24.30
71463;BMP180;59266;52.608;13.260;2023-07-31T11:03:45;100357.00;;;24.00
71463;BMP180;59266;52.608;13.260;2023-07-31T11:06:18;100370.00;;;22.90
71463;BMP180;59266;52.608;13.260;2023-07-31T11:08:46;100370.00;;;22.80
71463;BMP180;59266;52.608;13.260;2023-07-31T11:11:14;100361.00;;;22.80
71463;BMP180;59266;52.608;13.260;2023-07-31T11:13:43;100367.00;;;23.20
71463;BMP180;59266;52.608;13.260;2023-07-31T11:16:10;100353.00;;;23.20
71463;BMP180;59266;52.608;13.260;2023-07-31T11:18:39;100352.00;;;22.50
71463;BMP180;59266;52.608;13.260;2023-07-31T11:21:16;100358.00;;;21.60
71463;BMP180;59266;52.608;13.260;2023-07-31T11:23:47;100364.00;;;22.20
71463;BMP180;59266;52.608;13.260;2023-07-31T11:26:15;100362.00;;;22.00
71463;BMP180;59266;52.608;13.260;2023-07-31T11:28:42;100352.00;;;22.40
71463;BMP180;59266;52.608;13.260;2023-07-31T11:31:10;100346.00;;;22.40
71463;BMP180;59266;52.608;13.260;2023-07-31T11:33:37;100349.00;;;22.50
71463;BMP180;59266;52.608;13.260;2023-07-31T11:36:04;100360.00;;;22.20
71463;BMP180;59266;52.608;13.260;2023-07-31T11:38:32;100358.00;;;21.90
71463;BMP180;59266;52.608;13.260;2023-07-31T11:41:02;100355.00;;;21.90
71463;BMP180;59266;52.608;13.260;2023-07-31T11:43:29;100351.00;;;21.50
71463;BMP180;59266;52.608;13.260;2023-07-31T11:45:57;100363.00;;;22.00
71463;BMP180;59266;52.608;13.260;2023-07-31T11:51:03;100359.00;;;21.70
71463;BMP180;59266;52.608;13.260;2023-07-31T11:53:41;100358.00;;;21.40
71463;BMP180;59266;52.608;13.260;2023-07-31T11:56:11;100360.00;;;21.20
71463;BMP180;59266;52.608;13.260;2023-07-31T11:58:39;100359.00;;;21.20
71463;BMP180;59266;52.608;13.260;2023-07-31T12:01:07;100355.00;;;21.30
71463;BMP180;59266;52.608;13.260;2023-07-31T12:03:35;100354.00;;;21.40
71463;BMP180;59266;52.608;13.260;2023-07-31T12:06:01;100357.00;;;21.30
71463;BMP180;59266;52.608;13.260;2023-07-31T12:08:29;100362.00;;;20.80
71463;BMP180;59266;52.608;13.260;2023-07-31T12:11:02;100357.00;;;20.60
71463;BMP180;59266;52.608;13.260;2023-07-31T12:13:30;100344.00;;;20.70
71463;BMP180;59266;52.608;13.260;2023-07-31T12:16:04;100352.00;;;20.90
71463;BMP180;59266;52.608;13.260;2023-07-31T12:19:08;100342.00;;;21.50
71463;BMP180;59266;52.608;13.260;2023-07-31T12:21:48;100343.00;;;21.70
71463;BMP180;59266;52.608;13.260;2023-07-31T12:24:14;100342.00;;;21.50
71463;BMP180;59266;52.608;13.260;2023-07-31T12:26:45;100346.00;;;21.40
71463;BMP180;59266;52.608;13.260;2023-07-31T12:29:12;100354.00;;;21.20
71463;BMP180;59266;52.608;13.260;2023-07-31T12:31:41;100358.00;;;21.10
71463;BMP180;59266;52.608;13.260;2023-07-31T12:34:23;100354.00;;;20.50
71463;BMP180;59266;52.608;13.260;2023-07-31T12:37:07;100335.00;;;20.80
71463;BMP180;59266;52.608;13.260;2023-07-31T12:39:54;100332.00;;;20.60
71463;BMP180;59266;52.608;13.260;2023-07-31T12:42:21;100326.00;;;20.60
71463;BMP180;59266;52.608;13.260;2023-07-31T12:44:47;100332.00;;;21.00
71463;BMP180;59266;52.608;13.260;2023-07-31T12:47:58;100330.00;;;20.60
71463;BMP180;59266;52.608;13.260;2023-07-31T12:50:25;100333.00;;;20.80
71463;BMP180;59266;52.608;13.260;2023-07-31T12:52:53;100325.00;;;20.80
71463;BMP180;59266;52.608;13.260;2023-07-31T12:55:20;100318.00;;;21.20
71463;BMP180;59266;52.608;13.260;2023-07-31T12:57:47;100312.00;;;21.10
71463;BMP180;59266;52.608;13.260;2023-07-31T13:00:14;100304.00;;;21.50
71463;BMP180;59266;52.608;13.260;2023-07-31T13:02:41;100306.00;;;21.40
71463;BMP180;59266;52.608;13.260;2023-07-31T13:05:08;100306.00;;;21.30
71463;BMP180;59266;52.608;13.260;2023-07-31T13:07:35;100313.00;;;21.50
71463;BMP180;59266;52.608;13.260;2023-07-31T13:10:01;100322.00;;;21.20
71463;BMP180;59266;52.608;13.260;2023-07-31T13:12:28;100314.00;;;21.00
71463;BMP180;59266;52.608;13.260;2023-07-31T13:14:54;100293.00;;;20.80
71463;BMP180;59266;52.608;13.260;2023-07-31T13:17:21;100296.00;;;20.90
71463;BMP180;59266;52.608;13.260;2023-07-31T13:19:48;100287.00;;;21.60
71463;BMP180;59266;52.608;13.260;2023-07-31T13:22:17;100287.00;;;22.00
71463;BMP180;59266;52.608;13.260;2023-07-31T13:24:44;100288.00;;;22.70
71463;BMP180;59266;52.608;13.260;2023-07-31T13:27:10;100280.00;;;22.60
71463;BMP180;59266;52.608;13.260;2023-07-31T13:29:37;100281.00;;;22.60
71463;BMP180;59266;52.608;13.260;2023-07-31T13:32:07;100276.00;;;22.50
71463;BMP180;59266;52.608;13.260;2023-07-31T13:34:35;100275.00;;;22.50
71463;BMP180;59266;52.608;13.260;2023-07-31T13:37:02;100263.00;;;22.90
71463;BMP180;59266;52.608;13.260;2023-07-31T13:39:29;100256.00;;;23.50
71463;BMP180;59266;52.608;13.260;2023-07-31T13:41:55;100252.00;;;23.70
71463;BMP180;59266;52.608;13.260;2023-07-31T13:44:22;100256.00;;;23.40
71463;BMP180;59266;52.608;13.260;2023-07-31T13:46:49;100250.00;;;24.00
71463;BMP180;59266;52.608;13.260;2023-07-31T13:49:15;100253.00;;;24.10
71463;BMP180;59266;52.608;13.260;2023-07-31T13:51:42;100253.00;;;24.00
71463;BMP180;59266;52.608;13.260;2023-07-31T13:54:09;100254.00;;;23.50
71463;BMP180;59266;52.608;13.260;2023-07-31T13:56:38;100250.00;;;23.70
71463;BMP180;59266;52.608;13.260;2023-07-31T13:59:05;100250.00;;;23.40